Casper, WY (82601)

4:20 PM MDT on May 24, 2017 (GMT -0600)
Grant Avenue | | Change Station
Active Advisory: Special Statement Active Notice: Public Information Statement

Elev 5164 ft 42.84 °N, 106.32 °W | Updated 9 minutes ago

Clear
Clear
82.8 °F
Feels Like 81 °F
N
6.2
Wind Variable Wind from WNW
Gusts 13.0 mph

Today
High -- | Low -- °F
--% Chance of Precip.
Yesterday
High -- | Low -- °F
Precip. -- in
Pressure 29.31 in
Visibility 10.0 miles
Clouds Few 10000 ft
Heat Index 81 °F
Dew Point 47 °F
Humidity 28%
Rainfall 0.00 in
Snow Depth Not available.
5:34 AM 8:30 PM
Waning Crescent, 1% visible
METAR KCPR 242153Z 26023G31KT 10SM FEW100 27/05 A2949 RMK AO2 PK WND 24041/2111 SLP925 T02670050
Pressure 29.31 in
Visibility 10.0 miles
Clouds Few 10000 ft
Heat Index 81 °F
Dew Point 47 °F
Humidity 28%
Rainfall 0.00 in
Snow Depth Not available.
5:34 AM 8:30 PM
Waning Crescent, 1% visible
METAR KCPR 242153Z 26023G31KT 10SM FEW100 27/05 A2949 RMK AO2 PK WND 24041/2111 SLP925 T02670050

Get Your Daily Forecast Email!

Thanks for signing up!

Be on the lookout for a verification email in your inbox.

You'll start receiving severe weather alerts in your inbox..

×

10-Day Weather Forecast

Almanac

Astronomy

May. 24, 2017 Rise Set
Actual Time
Civil Twilight
Nautical Twilight
Astronomical Twilight
Moon
Length of Visible Light
Length of Day
Tomorrow will be .
, % of the Moon is Illuminated

Today's Extremes

State Highs State Lows

Community

WunderPhotos

Category 6

Welcome to Category 6. This is the collective home for Weather Underground's featured writeups by Dr. Jeff Masters (right), Bob Henson (left), Chris Burt, and other regular contributors.

Nearby

Air Quality

  Air Quality AQ Index Pollutant
Not available.

Snow Depth

Station Depth Elevation

Earthquake Activity

City Distance Mag. Time & Date
Minimum magnitude displayed is 2.5.

Coastal Water Temperatures

Place Temperature

Stations

Nearby Weather Stations

Station Location Temp. Windchill Dew Point Humidity Wind Precip. Elev Updated Type
                   

Watches & Warnings

Special Statement
Issued: 11:27 AM MDT May. 24, 2017 – National Weather Service


West winds increase this afternoon to 25 to 35 mph with gusts to
50 mph at times before decreasing around sunset. Travelers,
especially those towing light weight trailers and in high profile
vehicles, are urged to watch for strong Crosswinds when traveling
this afternoon.